createdAt,value
2022-12-28T00:00:29.837Z,1023.10
2022-12-28T00:01:30.038Z,1023.10
2022-12-28T00:02:30.117Z,1023.05
2022-12-28T00:03:30.337Z,1023.01
2022-12-28T00:04:30.487Z,1022.99
2022-12-28T00:05:30.648Z,1022.99
2022-12-28T00:06:30.837Z,1022.99
2022-12-28T00:07:31.037Z,1022.96
2022-12-28T00:08:31.198Z,1022.96
2022-12-28T00:09:31.400Z,1022.93
2022-12-28T00:11:09.463Z,1022.95
2022-12-28T00:11:32.738Z,1022.94
2022-12-28T00:12:31.941Z,1022.95
2022-12-28T00:13:32.118Z,1022.95
2022-12-28T00:14:32.310Z,1022.90
2022-12-28T00:15:32.440Z,1022.85
2022-12-28T00:16:32.664Z,1022.84
2022-12-28T00:17:32.784Z,1022.81
2022-12-28T00:18:32.946Z,1022.78
2022-12-28T00:19:33.146Z,1022.78
2022-12-28T00:20:33.295Z,1022.76
2022-12-28T00:21:33.487Z,1022.68
2022-12-28T00:22:33.647Z,1022.73
2022-12-28T00:23:33.839Z,1022.75
2022-12-28T00:24:34.010Z,1022.74
2022-12-28T00:25:34.167Z,1022.78
2022-12-28T00:26:34.341Z,1022.89
2022-12-28T00:27:34.497Z,1022.92
2022-12-28T00:28:34.656Z,1022.98
2022-12-28T00:29:34.908Z,1022.96
2022-12-28T00:30:35.015Z,1022.94
2022-12-28T00:31:35.253Z,1022.96
2022-12-28T00:32:35.354Z,1022.87
2022-12-28T00:33:35.544Z,1022.84
2022-12-28T00:34:35.718Z,1022.83
2022-12-28T00:35:35.889Z,1022.71
2022-12-28T00:37:09.109Z,1022.70
2022-12-28T00:37:37.234Z,1022.73
2022-12-28T00:38:36.405Z,1022.72
2022-12-28T00:39:36.583Z,1022.72
2022-12-28T00:40:36.743Z,1022.72
2022-12-28T00:41:36.903Z,1022.66
2022-12-28T00:42:37.056Z,1022.68
2022-12-28T00:43:37.250Z,1022.70
2022-12-28T00:44:37.421Z,1022.68
2022-12-28T00:45:37.597Z,1022.71
2022-12-28T00:46:37.755Z,1022.68
2022-12-28T00:47:38.014Z,1022.70
2022-12-28T00:48:38.128Z,1022.70
2022-12-28T00:49:38.330Z,1022.70
2022-12-28T00:50:38.470Z,1022.73
2022-12-28T00:51:38.674Z,1022.70
2022-12-28T00:52:38.830Z,1022.73
2022-12-28T00:53:38.993Z,1022.72
2022-12-28T00:54:39.165Z,1022.71
2022-12-28T00:55:39.332Z,1022.75
2022-12-28T00:56:39.486Z,1022.70
2022-12-28T00:57:39.672Z,1022.64
2022-12-28T00:58:39.864Z,1022.63
2022-12-28T00:59:40.040Z,1022.65
2022-12-28T01:00:40.209Z,1022.67
2022-12-28T01:01:40.480Z,1022.63
2022-12-28T01:02:40.558Z,1022.66
2022-12-28T01:03:40.715Z,1022.64
2022-12-28T01:04:40.884Z,1022.69
2022-12-28T01:05:41.062Z,1022.66
2022-12-28T01:06:41.213Z,1022.62
2022-12-28T01:07:41.407Z,1022.61
2022-12-28T01:08:41.567Z,1022.59
2022-12-28T01:09:41.723Z,1022.60
2022-12-28T01:10:41.884Z,1022.53
2022-12-28T01:11:42.075Z,1022.52
2022-12-28T01:12:42.225Z,1022.50
2022-12-28T01:13:42.425Z,1022.53
2022-12-28T01:14:42.593Z,1022.56
2022-12-28T01:15:42.758Z,1022.52
2022-12-28T01:16:42.921Z,1022.50
2022-12-28T01:17:43.092Z,1022.45
2022-12-28T01:18:43.249Z,1022.48
2022-12-28T01:19:46.218Z,1022.42
2022-12-28T01:20:44.593Z,1022.43
2022-12-28T01:21:43.773Z,1022.48
2022-12-28T01:22:43.930Z,1022.49
2022-12-28T01:23:44.183Z,1022.50
2022-12-28T01:24:44.301Z,1022.46
2022-12-28T01:25:44.470Z,1022.48
2022-12-28T01:26:44.621Z,1022.46
2022-12-28T01:27:44.815Z,1022.41
2022-12-28T01:28:44.977Z,1022.45
2022-12-28T01:29:45.188Z,1022.44
2022-12-28T01:30:45.331Z,1022.40
2022-12-28T01:31:45.587Z,1022.37
2022-12-28T01:32:45.660Z,1022.39
2022-12-28T01:33:45.850Z,1022.37
2022-12-28T01:34:46.064Z,1022.36
2022-12-28T01:35:46.230Z,1022.34
2022-12-28T01:36:46.380Z,1022.31
2022-12-28T01:37:46.553Z,1022.34
2022-12-28T01:38:46.705Z,1022.30
2022-12-28T01:39:46.915Z,1022.22
2022-12-28T01:40:47.064Z,1022.20
2022-12-28T01:41:47.259Z,1022.20
2022-12-28T01:42:47.417Z,1022.17
2022-12-28T01:43:47.610Z,1022.16
2022-12-28T01:44:47.833Z,1022.10
2022-12-28T01:45:48.016Z,1022.13
2022-12-28T01:46:48.133Z,1022.09
2022-12-28T01:47:48.320Z,1022.09
2022-12-28T01:48:48.500Z,1022.07
2022-12-28T01:49:48.712Z,1022.07
2022-12-28T01:50:48.860Z,1022.09
2022-12-28T01:51:49.051Z,1022.07
2022-12-28T01:52:49.199Z,1022.07
2022-12-28T01:53:49.398Z,1022.00
2022-12-28T01:54:49.576Z,1021.95
2022-12-28T01:55:49.737Z,1021.95
2022-12-28T01:56:49.921Z,1021.87
2022-12-28T01:57:50.115Z,1021.89
2022-12-28T01:58:50.279Z,1021.86
2022-12-28T01:59:50.472Z,1021.80
2022-12-28T02:00:50.686Z,1021.79
2022-12-28T02:01:50.951Z,1021.79
2022-12-28T02:02:51.046Z,1021.75
2022-12-28T02:03:51.179Z,1021.77
2022-12-28T02:04:51.339Z,1021.72
2022-12-28T02:05:51.498Z,1021.73
2022-12-28T02:06:51.648Z,1021.67
2022-12-28T02:07:51.847Z,1021.67
2022-12-28T02:08:51.997Z,1021.60
2022-12-28T02:10:43.778Z,1021.63
2022-12-28T02:10:53.357Z,1021.61
2022-12-28T02:11:52.534Z,1021.56
2022-12-28T02:12:52.739Z,1021.54
2022-12-28T02:13:52.870Z,1021.50
2022-12-28T02:14:53.046Z,1021.52
2022-12-28T02:15:53.207Z,1021.46
2022-12-28T02:16:53.395Z,1021.46
2022-12-28T02:17:53.527Z,1021.42
2022-12-28T02:18:53.684Z,1021.37
2022-12-28T02:19:53.855Z,1021.37
2022-12-28T02:20:54.016Z,1021.29
2022-12-28T02:21:54.207Z,1021.29
2022-12-28T02:22:54.365Z,1021.27
2022-12-28T02:23:54.556Z,1021.26
2022-12-28T02:25:11.336Z,1021.21
2022-12-28T02:25:55.915Z,1021.27
2022-12-28T02:26:55.090Z,1021.23
2022-12-28T02:27:55.272Z,1021.17
2022-12-28T02:28:55.449Z,1021.21
2022-12-28T02:29:55.639Z,1021.23
2022-12-28T02:30:55.809Z,1021.19
2022-12-28T02:31:55.955Z,1021.12
2022-12-28T02:32:56.105Z,1021.11
2022-12-28T02:33:56.298Z,1021.12
2022-12-28T02:34:56.476Z,1020.98
2022-12-28T02:35:56.635Z,1020.91
2022-12-28T02:36:56.782Z,1020.93
2022-12-28T02:37:56.954Z,1020.89
2022-12-28T02:38:57.112Z,1020.86
2022-12-28T02:39:57.314Z,1020.84
2022-12-28T02:40:57.478Z,1020.86
2022-12-28T02:41:57.666Z,1020.85
2022-12-28T02:42:57.833Z,1020.78
2022-12-28T02:43:58.025Z,1020.82
2022-12-28T02:44:58.195Z,1020.86
2022-12-28T02:45:58.393Z,1020.84
2022-12-28T02:46:58.539Z,1020.78
2022-12-28T02:47:58.732Z,1020.81
2022-12-28T02:48:58.883Z,1020.76
2022-12-28T02:49:59.070Z,1020.73
2022-12-28T02:50:59.220Z,1020.70
2022-12-28T02:51:59.373Z,1020.73
2022-12-28T02:52:59.532Z,1020.69
2022-12-28T02:53:59.730Z,1020.67
2022-12-28T02:54:59.893Z,1020.62
2022-12-28T02:56:00.052Z,1020.60
2022-12-28T02:57:00.202Z,1020.61
2022-12-28T02:58:00.403Z,1020.54
2022-12-28T02:59:00.563Z,1020.47
2022-12-28T03:00:00.772Z,1020.51
2022-12-28T03:01:01.015Z,1020.49
2022-12-28T03:02:01.150Z,1020.43
2022-12-28T03:03:01.401Z,1020.44
2022-12-28T03:04:01.462Z,1020.40
2022-12-28T03:05:01.635Z,1020.35
2022-12-28T03:06:01.791Z,1020.33
2022-12-28T03:07:01.948Z,1020.37
2022-12-28T03:08:02.138Z,1020.36
2022-12-28T03:09:02.321Z,1020.36
2022-12-28T03:10:02.534Z,1020.36
2022-12-28T03:11:02.681Z,1020.34
2022-12-28T03:12:02.899Z,1020.30
2022-12-28T03:13:03.053Z,1020.35
2022-12-28T03:14:03.211Z,1020.36
2022-12-28T03:15:03.398Z,1020.33
2022-12-28T03:16:03.609Z,1020.35
2022-12-28T03:17:03.737Z,1020.30
2022-12-28T03:18:03.947Z,1020.28
2022-12-28T03:19:04.090Z,1020.25
2022-12-28T03:20:04.290Z,1020.30
2022-12-28T03:21:04.451Z,1020.26
2022-12-28T03:22:04.640Z,1020.21
2022-12-28T03:23:04.793Z,1020.21
2022-12-28T03:24:04.978Z,1020.19
2022-12-28T03:25:05.149Z,1020.16
2022-12-28T03:26:05.319Z,1020.09
2022-12-28T03:27:05.466Z,1020.09
2022-12-28T03:28:05.659Z,1020.02
2022-12-28T03:29:05.811Z,1020.04
2022-12-28T03:30:06.015Z,1019.98
2022-12-28T03:31:06.213Z,1019.99
2022-12-28T03:32:06.340Z,1019.97
2022-12-28T03:33:06.533Z,1019.89
2022-12-28T03:34:06.953Z,1019.84
2022-12-28T03:35:06.919Z,1019.81
2022-12-28T03:36:07.079Z,1019.73
2022-12-28T03:37:07.247Z,1019.72
2022-12-28T03:38:07.420Z,1019.65
2022-12-28T03:39:07.609Z,1019.66
2022-12-28T03:40:07.784Z,1019.67
2022-12-28T03:41:07.947Z,1019.66
2022-12-28T03:42:08.099Z,1019.62
2022-12-28T03:43:08.356Z,1019.58
2022-12-28T03:44:08.450Z,1019.60
2022-12-28T03:45:08.668Z,1019.54
2022-12-28T03:46:08.876Z,1019.56
2022-12-28T03:47:08.998Z,1019.62
2022-12-28T03:48:09.156Z,1019.57
2022-12-28T03:49:09.355Z,1019.61
2022-12-28T03:50:09.522Z,1019.57
2022-12-28T03:51:09.679Z,1019.47
2022-12-28T03:52:09.840Z,1019.52
2022-12-28T03:53:10.039Z,1019.51
2022-12-28T03:54:10.196Z,1019.48
2022-12-28T03:55:10.412Z,1019.43
2022-12-28T03:56:10.571Z,1019.48
2022-12-28T03:57:10.777Z,1019.45
2022-12-28T03:58:10.922Z,1019.49
2022-12-28T03:59:11.108Z,1019.41
2022-12-28T04:00:11.279Z,1019.35
2022-12-28T04:01:11.558Z,1019.39
2022-12-28T04:02:11.731Z,1019.35
2022-12-28T04:03:11.868Z,1019.37
2022-12-28T04:04:11.981Z,1019.34
2022-12-28T04:05:12.187Z,1019.27
2022-12-28T04:06:12.348Z,1019.25
2022-12-28T04:07:12.536Z,1019.27
2022-12-28T04:08:12.695Z,1019.28
2022-12-28T04:09:12.888Z,1019.26
2022-12-28T04:10:13.057Z,1019.24
2022-12-28T04:11:13.223Z,1019.21
2022-12-28T04:12:13.377Z,1019.18
2022-12-28T04:13:13.566Z,1019.13
2022-12-28T04:14:13.725Z,1019.11
2022-12-28T04:15:13.937Z,1019.10
2022-12-28T04:16:14.173Z,1019.13
2022-12-28T04:17:14.291Z,1019.08
2022-12-28T04:18:14.467Z,1019.07
2022-12-28T04:19:14.655Z,1019.06
2022-12-28T04:20:14.867Z,1019.02
2022-12-28T04:21:15.027Z,1019.03
2022-12-28T04:22:15.217Z,1019.03
2022-12-28T04:23:15.388Z,1019.03
2022-12-28T04:24:15.528Z,1019.03
2022-12-28T04:25:15.735Z,1018.98
2022-12-28T04:26:15.895Z,1018.93
2022-12-28T04:27:16.082Z,1018.98
2022-12-28T04:28:16.233Z,1018.97
2022-12-28T04:29:16.424Z,1018.97
2022-12-28T04:30:16.626Z,1018.89
2022-12-28T04:31:16.824Z,1018.89
2022-12-28T04:32:16.959Z,1018.89
2022-12-28T04:33:17.157Z,1018.85
2022-12-28T04:34:17.311Z,1018.88
2022-12-28T04:35:17.505Z,1018.78
2022-12-28T04:36:17.664Z,1018.79
2022-12-28T04:37:17.857Z,1018.77
2022-12-28T04:38:18.023Z,1018.76
2022-12-28T04:39:18.196Z,1018.79
2022-12-28T04:40:18.398Z,1018.85
2022-12-28T04:41:18.558Z,1018.85
2022-12-28T04:42:18.704Z,1018.81
2022-12-28T04:43:18.897Z,1018.77
2022-12-28T04:44:19.055Z,1018.80
2022-12-28T04:45:22.229Z,1018.79
2022-12-28T04:46:19.435Z,1018.81
2022-12-28T04:47:19.591Z,1018.83
2022-12-28T04:48:19.744Z,1018.79
2022-12-28T04:49:19.909Z,1018.85
2022-12-28T04:50:20.072Z,1018.79
2022-12-28T04:51:20.234Z,1018.74
2022-12-28T04:52:20.385Z,1018.77
2022-12-28T04:53:20.583Z,1018.71
2022-12-28T04:54:20.781Z,1018.71
2022-12-28T04:55:32.254Z,1018.78
2022-12-28T04:56:22.101Z,1018.79
2022-12-28T04:57:21.291Z,1018.74
2022-12-28T04:58:21.463Z,1018.74
2022-12-28T04:59:21.630Z,1018.79
2022-12-28T05:00:21.805Z,1018.77
2022-12-28T05:01:22.024Z,1018.78
2022-12-28T05:02:22.227Z,1018.78
2022-12-28T05:03:22.312Z,1018.77
2022-12-28T05:04:22.476Z,1018.80
2022-12-28T05:05:22.674Z,1018.78
2022-12-28T05:06:22.832Z,1018.74
2022-12-28T05:07:23.032Z,1018.70
2022-12-28T05:08:23.180Z,1018.70
2022-12-28T05:09:23.371Z,1018.70
2022-12-28T05:10:23.546Z,1018.63
2022-12-28T05:11:23.706Z,1018.66
2022-12-28T05:12:23.896Z,1018.63
2022-12-28T05:13:24.052Z,1018.60
2022-12-28T05:14:24.217Z,1018.63
2022-12-28T05:15:24.411Z,1018.68
2022-12-28T05:16:24.662Z,1018.63
2022-12-28T05:17:24.778Z,1018.69
2022-12-28T05:18:24.915Z,1018.67
2022-12-28T05:19:25.075Z,1018.68
2022-12-28T05:20:25.253Z,1018.64
2022-12-28T05:21:25.401Z,1018.59
2022-12-28T05:22:25.551Z,1018.65
2022-12-28T05:23:25.749Z,1018.63
2022-12-28T05:24:25.900Z,1018.60
2022-12-28T05:25:26.124Z,1018.58
2022-12-28T05:26:26.261Z,1018.61
2022-12-28T05:27:26.454Z,1018.59
2022-12-28T05:28:26.611Z,1018.62
2022-12-28T05:29:26.802Z,1018.57
2022-12-28T05:30:26.969Z,1018.56
2022-12-28T05:31:27.219Z,1018.54
2022-12-28T05:32:27.279Z,1018.50
2022-12-28T05:33:27.480Z,1018.46
2022-12-28T05:34:27.631Z,1018.42
2022-12-28T05:35:27.842Z,1018.45
2022-12-28T05:36:27.999Z,1018.39
2022-12-28T05:37:28.164Z,1018.33
2022-12-28T05:38:28.340Z,1018.34
2022-12-28T05:39:28.569Z,1018.31
2022-12-28T05:40:28.709Z,1018.26
2022-12-28T05:41:28.908Z,1018.24
2022-12-28T05:42:29.059Z,1018.26
2022-12-28T05:43:29.250Z,1018.27
2022-12-28T05:44:29.433Z,1018.25
2022-12-28T05:45:29.600Z,1018.22
2022-12-28T05:46:29.777Z,1018.22
2022-12-28T05:47:29.949Z,1018.21
2022-12-28T05:48:30.100Z,1018.12
2022-12-28T05:49:30.310Z,1018.16
2022-12-28T05:50:30.489Z,1018.14
2022-12-28T05:51:30.658Z,1018.15
2022-12-28T05:52:30.812Z,1018.20
2022-12-28T05:53:31.002Z,1018.08
2022-12-28T05:54:31.191Z,1018.11
2022-12-28T05:55:31.400Z,1018.11
2022-12-28T05:56:31.549Z,1018.11
2022-12-28T05:57:31.740Z,1018.07
2022-12-28T05:58:31.930Z,1017.96
2022-12-28T05:59:32.128Z,1018.03
2022-12-28T06:00:32.305Z,1018.01
2022-12-28T06:01:32.653Z,1017.96
2022-12-28T06:02:32.673Z,1017.95
2022-12-28T06:03:32.887Z,1017.97
2022-12-28T06:04:32.998Z,1017.87
2022-12-28T06:05:33.161Z,1017.83
2022-12-28T06:06:33.320Z,1017.86
2022-12-28T06:07:33.507Z,1017.82
2022-12-28T06:08:33.697Z,1017.83
2022-12-28T06:09:33.898Z,1017.85
2022-12-28T06:10:34.067Z,1017.80
2022-12-28T06:11:34.251Z,1017.80
2022-12-28T06:12:34.411Z,1017.73
2022-12-28T06:13:34.606Z,1017.74
2022-12-28T06:14:34.787Z,1017.75
2022-12-28T06:15:34.928Z,1017.74
2022-12-28T06:16:35.122Z,1017.70
2022-12-28T06:17:35.266Z,1017.65
2022-12-28T06:18:35.426Z,1017.65
2022-12-28T06:19:35.615Z,1017.65
2022-12-28T06:20:35.776Z,1017.65
2022-12-28T06:21:35.941Z,1017.61
2022-12-28T06:22:36.134Z,1017.65
2022-12-28T06:23:36.266Z,1017.59
2022-12-28T06:24:36.429Z,1017.63
2022-12-28T06:25:36.626Z,1017.52
2022-12-28T06:26:36.801Z,1017.53
2022-12-28T06:27:36.976Z,1017.62
2022-12-28T06:28:37.141Z,1017.53
2022-12-28T06:29:37.296Z,1017.55
2022-12-28T06:30:37.464Z,1017.52
2022-12-28T06:31:37.679Z,1017.44
2022-12-28T06:32:37.782Z,1017.61
2022-12-28T06:33:37.974Z,1017.62
2022-12-28T06:34:38.141Z,1017.58
2022-12-28T06:35:38.295Z,1017.57
2022-12-28T06:36:38.458Z,1017.54
2022-12-28T06:37:38.639Z,1017.48
2022-12-28T06:38:38.766Z,1017.51
2022-12-28T06:39:38.953Z,1017.44
2022-12-28T06:41:11.603Z,1017.48
2022-12-28T06:41:40.295Z,1017.48
2022-12-28T06:42:39.456Z,1017.38
2022-12-28T06:43:39.658Z,1017.40
2022-12-28T06:44:44.498Z,1017.38
2022-12-28T06:45:41.040Z,1017.44
2022-12-28T06:46:40.171Z,1017.39
2022-12-28T06:47:40.351Z,1017.35
2022-12-28T06:48:40.594Z,1017.33
2022-12-28T06:49:40.715Z,1017.37
2022-12-28T06:50:40.921Z,1017.36
2022-12-28T06:51:41.081Z,1017.31
2022-12-28T06:52:41.262Z,1017.27
2022-12-28T06:53:41.460Z,1017.29
2022-12-28T06:54:41.633Z,1017.25
2022-12-28T06:55:41.816Z,1017.23
2022-12-28T06:56:41.982Z,1017.23
2022-12-28T06:57:42.171Z,1017.23
2022-12-28T06:58:42.346Z,1017.16
2022-12-28T06:59:42.527Z,1017.16
2022-12-28T07:00:42.681Z,1017.09
2022-12-28T07:01:42.953Z,1017.09
2022-12-28T07:02:43.116Z,1017.05
2022-12-28T07:03:43.222Z,1017.07
2022-12-28T07:04:43.391Z,1017.04
2022-12-28T07:05:43.579Z,1017.02
2022-12-28T07:06:43.783Z,1017.02
2022-12-28T07:07:43.913Z,1016.93
2022-12-28T07:08:44.095Z,1016.92
2022-12-28T07:09:44.269Z,1016.91
2022-12-28T07:10:44.446Z,1016.96
2022-12-28T07:11:44.695Z,1016.99
2022-12-28T07:12:44.801Z,1016.95
2022-12-28T07:13:44.982Z,1016.93
2022-12-28T07:14:45.156Z,1016.96
2022-12-28T07:15:45.327Z,1017.04
2022-12-28T07:16:45.510Z,1017.01
2022-12-28T07:17:45.693Z,1017.00
2022-12-28T07:18:45.857Z,1016.98
2022-12-28T07:19:46.040Z,1016.94
2022-12-28T07:20:46.210Z,1016.87
2022-12-28T07:21:46.420Z,1016.84
2022-12-28T07:22:46.581Z,1016.79
2022-12-28T07:23:46.753Z,1016.82
2022-12-28T07:24:46.956Z,1016.81
2022-12-28T07:25:47.120Z,1016.84
2022-12-28T07:26:47.348Z,1016.82
2022-12-28T07:27:47.496Z,1016.80
2022-12-28T07:28:47.657Z,1016.73
2022-12-28T07:29:47.849Z,1016.82
2022-12-28T07:30:48.071Z,1016.69
2022-12-28T07:31:48.225Z,1016.70
2022-12-28T07:32:48.359Z,1016.66
2022-12-28T07:33:48.553Z,1016.66
2022-12-28T07:34:48.703Z,1016.63
2022-12-28T07:35:48.868Z,1016.64
2022-12-28T07:36:49.062Z,1016.65
2022-12-28T07:37:49.238Z,1016.65
2022-12-28T07:38:49.431Z,1016.67
2022-12-28T07:39:49.607Z,1016.64
2022-12-28T07:40:49.760Z,1016.68
2022-12-28T07:41:50.010Z,1016.64
2022-12-28T07:42:50.106Z,1016.62
2022-12-28T07:43:50.299Z,1016.62
2022-12-28T07:44:50.473Z,1016.65
2022-12-28T07:45:50.714Z,1016.59
2022-12-28T07:46:50.839Z,1016.63
2022-12-28T07:47:50.977Z,1016.55
2022-12-28T07:48:51.168Z,1016.55
2022-12-28T07:49:51.366Z,1016.61
2022-12-28T07:50:51.508Z,1016.60
2022-12-28T07:51:51.688Z,1016.58
2022-12-28T07:52:51.883Z,1016.57
2022-12-28T07:53:52.074Z,1016.62
2022-12-28T07:54:52.295Z,1016.57
2022-12-28T07:55:52.436Z,1016.57
2022-12-28T07:56:52.688Z,1016.63
2022-12-28T07:57:52.781Z,1016.61
2022-12-28T07:59:30.917Z,1016.61
2022-12-28T08:00:27.632Z,1016.63
2022-12-28T08:01:27.881Z,1016.56
2022-12-28T08:02:28.117Z,1016.60
2022-12-28T08:03:28.178Z,1016.49
2022-12-28T08:04:28.353Z,1016.47
2022-12-28T08:05:28.534Z,1016.53
2022-12-28T08:06:28.740Z,1016.52
2022-12-28T08:07:28.874Z,1016.51
2022-12-28T08:08:29.067Z,1016.49
2022-12-28T08:09:29.222Z,1016.44
2022-12-28T08:10:29.424Z,1016.36
2022-12-28T08:11:29.613Z,1016.36
2022-12-28T08:12:29.755Z,1016.35
2022-12-28T08:13:29.935Z,1016.35
2022-12-28T08:14:30.104Z,1016.30
2022-12-28T08:15:30.345Z,1016.31
2022-12-28T08:16:30.477Z,1016.23
2022-12-28T08:17:30.614Z,1016.27
2022-12-28T08:18:30.808Z,1016.30
2022-12-28T08:19:30.990Z,1016.17
2022-12-28T08:20:31.167Z,1016.22
2022-12-28T08:21:31.360Z,1016.18
2022-12-28T08:22:31.514Z,1016.13
2022-12-28T08:23:31.671Z,1016.20
2022-12-28T08:24:31.865Z,1016.13
2022-12-28T08:25:32.015Z,1016.09
2022-12-28T08:26:32.204Z,1016.01
2022-12-28T08:27:38.304Z,1016.09
2022-12-28T08:28:33.512Z,1016.08
2022-12-28T08:29:32.710Z,1016.01
2022-12-28T08:30:32.889Z,1016.07
2022-12-28T08:31:33.090Z,1016.03
2022-12-28T08:32:33.219Z,1016.02
2022-12-28T08:33:33.372Z,1016.04
2022-12-28T08:34:33.542Z,1016.00
2022-12-28T08:35:33.700Z,1015.96
2022-12-28T08:36:33.898Z,1015.93
2022-12-28T08:37:34.033Z,1015.94
2022-12-28T08:38:34.222Z,1015.93
2022-12-28T08:39:34.392Z,1015.94
2022-12-28T08:40:34.581Z,1015.91
2022-12-28T08:41:34.778Z,1015.83
2022-12-28T08:42:34.951Z,1015.89
2022-12-28T08:43:35.133Z,1015.84
2022-12-28T08:44:35.296Z,1015.82
2022-12-28T08:45:35.476Z,1015.80
2022-12-28T08:46:35.736Z,1015.91
2022-12-28T08:47:35.810Z,1015.92
2022-12-28T08:48:36.006Z,1015.75
2022-12-28T08:49:36.170Z,1015.82
2022-12-28T08:50:36.367Z,1015.84
2022-12-28T08:51:36.551Z,1015.83
2022-12-28T08:52:36.725Z,1015.83
2022-12-28T08:53:36.900Z,1015.82
2022-12-28T08:54:37.092Z,1015.84
2022-12-28T08:55:37.270Z,1015.72
2022-12-28T08:56:37.486Z,1015.75
2022-12-28T08:57:37.643Z,1015.69
2022-12-28T08:58:37.802Z,1015.62
2022-12-28T08:59:37.990Z,1015.69
2022-12-28T09:00:38.177Z,1015.60
2022-12-28T09:01:43.845Z,1015.69
2022-12-28T09:02:39.836Z,1015.68
2022-12-28T09:03:38.750Z,1015.66
2022-12-28T09:04:38.889Z,1015.76
2022-12-28T09:05:39.833Z,1015.69
2022-12-28T09:06:39.276Z,1015.64
2022-12-28T09:07:39.420Z,1015.58
2022-12-28T09:08:39.608Z,1015.60
2022-12-28T09:09:39.799Z,1015.63
2022-12-28T09:10:39.931Z,1015.67
2022-12-28T09:11:40.139Z,1015.64
2022-12-28T09:12:40.351Z,1015.64
2022-12-28T09:13:40.464Z,1015.63
2022-12-28T09:14:40.648Z,1015.61
2022-12-28T09:15:40.855Z,1015.58
2022-12-28T09:16:41.009Z,1015.60
2022-12-28T09:17:41.153Z,1015.56
2022-12-28T09:18:41.335Z,1015.57
2022-12-28T09:19:41.513Z,1015.55
2022-12-28T09:20:47.517Z,1015.62
2022-12-28T09:21:42.869Z,1015.58
2022-12-28T09:22:42.028Z,1015.59
2022-12-28T09:23:42.208Z,1015.54
2022-12-28T09:24:42.394Z,1015.51
2022-12-28T09:25:42.568Z,1015.58
2022-12-28T09:26:42.779Z,1015.53
2022-12-28T09:27:42.917Z,1015.52
2022-12-28T09:28:43.100Z,1015.53
2022-12-28T09:29:43.272Z,1015.50
2022-12-28T09:30:43.458Z,1015.38
2022-12-28T09:31:43.753Z,1015.33
2022-12-28T09:32:43.818Z,1015.30
2022-12-28T09:34:13.902Z,1015.39
2022-12-28T09:34:45.220Z,1015.41
2022-12-28T09:35:44.369Z,1015.41
2022-12-28T09:36:44.563Z,1015.36
2022-12-28T09:37:44.738Z,1015.29
2022-12-28T09:38:44.940Z,1015.21
2022-12-28T09:39:45.118Z,1015.25
2022-12-28T09:40:45.280Z,1015.28
2022-12-28T09:41:45.455Z,1015.22
2022-12-28T09:42:45.589Z,1015.24
2022-12-28T09:43:45.804Z,1015.26
2022-12-28T09:44:45.971Z,1015.25
2022-12-28T09:45:46.159Z,1015.24
2022-12-28T09:46:48.902Z,1015.24
2022-12-28T09:47:46.479Z,1015.25
2022-12-28T09:48:46.658Z,1015.29
2022-12-28T09:49:46.858Z,1015.31
2022-12-28T09:50:47.040Z,1015.36
2022-12-28T09:51:47.217Z,1015.28
2022-12-28T09:52:49.849Z,1015.26
2022-12-28T09:53:47.582Z,1015.23
2022-12-28T09:54:47.777Z,1015.19
2022-12-28T09:55:47.918Z,1015.27
2022-12-28T09:56:48.112Z,1015.26
2022-12-28T09:57:48.287Z,1015.22
2022-12-28T09:58:48.459Z,1015.19
2022-12-28T09:59:48.655Z,1015.12
2022-12-28T10:00:48.808Z,1015.10
2022-12-28T10:01:49.066Z,1015.10
2022-12-28T10:02:49.248Z,1015.14
2022-12-28T10:03:49.334Z,1015.02
2022-12-28T10:04:49.654Z,1015.07
2022-12-28T10:05:49.697Z,1015.07
2022-12-28T10:06:49.847Z,1015.03
2022-12-28T10:07:50.038Z,1015.08
2022-12-28T10:08:50.226Z,1015.08
2022-12-28T10:09:50.425Z,1015.06
2022-12-28T10:10:50.579Z,1015.09
2022-12-28T10:11:50.752Z,1015.08
2022-12-28T10:12:50.928Z,1015.11
2022-12-28T10:13:55.394Z,1015.13
2022-12-28T10:14:52.316Z,1015.14
2022-12-28T10:15:51.668Z,1015.10
2022-12-28T10:16:51.666Z,1015.04
2022-12-28T10:17:51.800Z,1014.99
2022-12-28T10:18:51.988Z,1015.01
2022-12-28T10:19:52.191Z,1015.04
2022-12-28T10:20:52.324Z,1014.99
2022-12-28T10:21:52.496Z,1014.99
2022-12-28T10:22:52.697Z,1014.99
2022-12-28T10:24:54.081Z,1014.91
2022-12-28T10:25:53.236Z,1014.98
2022-12-28T10:26:53.417Z,1014.89
2022-12-28T10:27:53.607Z,1014.91
2022-12-28T10:28:53.798Z,1014.88
2022-12-28T10:29:53.994Z,1014.85
2022-12-28T10:30:54.140Z,1014.81
2022-12-28T10:31:54.318Z,1014.88
2022-12-28T10:32:59.680Z,1014.89
2022-12-28T10:33:55.656Z,1014.81
2022-12-28T10:34:54.864Z,1014.87
2022-12-28T10:35:55.012Z,1014.86
2022-12-28T10:36:55.205Z,1014.81
2022-12-28T10:37:55.373Z,1014.82
2022-12-28T10:38:55.557Z,1014.74
2022-12-28T10:39:55.772Z,1014.75
2022-12-28T10:40:55.906Z,1014.69
2022-12-28T10:41:56.095Z,1014.63
2022-12-28T10:42:56.274Z,1014.57
2022-12-28T10:44:29.227Z,1014.56
2022-12-28T10:44:57.633Z,1014.52
2022-12-28T10:45:56.786Z,1014.57
2022-12-28T10:46:57.015Z,1014.45
2022-12-28T10:47:57.148Z,1014.59
2022-12-28T10:48:57.344Z,1014.50
2022-12-28T10:50:58.737Z,1014.55
2022-12-28T10:51:57.905Z,1014.49
2022-12-28T10:52:58.060Z,1014.45
2022-12-28T10:53:58.266Z,1014.50
2022-12-28T10:55:08.475Z,1014.48
2022-12-28T10:55:59.573Z,1014.49
2022-12-28T10:56:58.784Z,1014.53
2022-12-28T10:59:00.144Z,1014.51
2022-12-28T10:59:59.316Z,1014.53
2022-12-28T11:00:59.580Z,1014.55
2022-12-28T11:01:59.777Z,1014.51
2022-12-28T11:02:59.946Z,1014.51
2022-12-28T11:04:00.031Z,1014.50
2022-12-28T11:05:00.180Z,1014.44
2022-12-28T11:06:00.328Z,1014.51
2022-12-28T11:07:00.525Z,1014.53
2022-12-28T11:08:00.698Z,1014.52
2022-12-28T11:09:00.874Z,1014.52
2022-12-28T11:10:01.100Z,1014.50
2022-12-28T11:11:01.236Z,1014.41
2022-12-28T11:12:01.395Z,1014.45
2022-12-28T11:13:01.568Z,1014.41
2022-12-28T11:14:01.708Z,1014.43
2022-12-28T11:15:01.886Z,1014.38
2022-12-28T11:16:02.124Z,1014.39
2022-12-28T11:17:02.228Z,1014.35
2022-12-28T11:18:02.420Z,1014.40
2022-12-28T11:19:02.584Z,1014.43
2022-12-28T11:20:02.794Z,1014.35
2022-12-28T11:21:02.932Z,1014.26
2022-12-28T11:22:03.112Z,1014.32
2022-12-28T11:23:03.296Z,1014.39
2022-12-28T11:24:03.489Z,1014.32
2022-12-28T11:25:03.652Z,1014.25
2022-12-28T11:26:03.801Z,1014.30
2022-12-28T11:27:03.985Z,1014.31
2022-12-28T11:28:04.163Z,1014.28
2022-12-28T11:29:04.347Z,1014.25
2022-12-28T11:30:04.570Z,1014.28
2022-12-28T11:31:04.703Z,1014.30
2022-12-28T11:32:04.893Z,1014.17
2022-12-28T11:33:05.056Z,1014.25
2022-12-28T11:34:05.222Z,1014.24
2022-12-28T11:35:05.362Z,1014.21
2022-12-28T11:36:09.938Z,1014.22
2022-12-28T11:37:05.703Z,1014.19
2022-12-28T11:38:05.900Z,1014.19
2022-12-28T11:39:06.042Z,1014.09
2022-12-28T11:40:06.235Z,1014.23
2022-12-28T11:41:06.455Z,1014.20
2022-12-28T11:43:07.769Z,1014.21
2022-12-28T11:44:06.914Z,1014.17
2022-12-28T11:45:07.093Z,1014.13
2022-12-28T11:46:07.328Z,1014.13
2022-12-28T11:47:07.443Z,1014.12
2022-12-28T11:48:07.642Z,1014.10
2022-12-28T11:49:07.792Z,1014.10
2022-12-28T11:50:07.974Z,1014.07
2022-12-28T11:51:08.152Z,1014.09
2022-12-28T11:52:08.343Z,1014.19
2022-12-28T11:53:13.720Z,1014.03
2022-12-28T11:54:09.703Z,1014.12
2022-12-28T11:55:08.850Z,1014.06
2022-12-28T11:56:09.051Z,1014.12
2022-12-28T11:57:09.198Z,1014.11
2022-12-28T11:58:09.402Z,1014.15
2022-12-28T11:59:09.562Z,1014.10
2022-12-28T12:00:09.728Z,1014.09
2022-12-28T12:01:09.967Z,1014.08
2022-12-28T12:02:10.117Z,1014.03
2022-12-28T12:03:10.346Z,1014.07
2022-12-28T12:04:10.454Z,1014.06
2022-12-28T12:05:10.630Z,1014.07
2022-12-28T12:06:10.813Z,1014.06
2022-12-28T12:07:10.992Z,1014.04
2022-12-28T12:08:11.204Z,1013.99
2022-12-28T12:09:11.345Z,1013.99
2022-12-28T12:10:11.561Z,1014.05
2022-12-28T12:11:11.694Z,1013.97
2022-12-28T12:12:17.268Z,1014.01